Time;durP1;ratioP1;P1;durP2;ratioP2;P2;SDS_P1;SDS_P2;PMS_P1;PMS_P2;Temp;Humidity;BMP_temperature;BMP_pressure;BME280_temperature;BME280_humidity;BME280_pressure;Samples;Min_cycle;Max_cycle;Signal;HPM_P1;HPM_P2
2021/10/10 00:00:17;;;;;;;9.17;6.30;;;9.90;93.90;;;;;;5012631;28;20185;-63
2021/10/10 00:02:43;;;;;;;5.87;4.67;;;9.90;93.70;;;;;;5013092;28;20589;-62
2021/10/10 00:05:09;;;;;;;5.93;4.93;;;9.90;93.30;;;;;;5012967;28;20235;-64
2021/10/10 00:07:35;;;;;;;7.00;6.30;;;9.80;93.60;;;;;;5012797;28;20256;-63
2021/10/10 00:10:00;;;;;;;8.80;5.67;;;9.70;93.70;;;;;;5012336;28;20432;-65
2021/10/10 00:12:26;;;;;;;7.80;5.93;;;9.60;94.30;;;;;;5012862;28;20165;-62
2021/10/10 00:14:52;;;;;;;8.20;5.70;;;9.50;94.10;;;;;;5012764;28;21132;-62
2021/10/10 00:17:18;;;;;;;5.73;5.10;;;9.60;95.20;;;;;;5012796;28;20217;-62
2021/10/10 00:19:43;;;;;;;6.60;5.40;;;9.40;95.40;;;;;;5012211;28;20424;-63
2021/10/10 00:22:09;;;;;;;9.03;7.50;;;9.30;95.90;;;;;;5012684;28;20264;-64
2021/10/10 00:24:35;;;;;;;6.23;5.57;;;9.40;97.70;;;;;;5012595;28;20192;-63
2021/10/10 00:27:00;;;;;;;7.50;5.47;;;9.30;96.80;;;;;;5012646;28;20178;-63
2021/10/10 00:29:26;;;;;;;7.50;5.80;;;9.20;97.40;;;;;;5012305;28;20197;-63
2021/10/10 00:31:51;;;;;;;5.90;5.33;;;9.20;96.90;;;;;;5012528;28;20224;-63
2021/10/10 00:34:17;;;;;;;6.53;5.83;;;9.10;97.50;;;;;;5012435;28;20178;-63
2021/10/10 00:36:43;;;;;;;11.33;4.90;;;9.40;96.80;;;;;;5012235;28;20269;-63
2021/10/10 00:39:08;;;;;;;7.90;6.33;;;9.10;97.10;;;;;;5011698;28;20208;-62
2021/10/10 00:41:36;;;;;;;6.03;5.40;;;9.00;96.50;;;;;;5012465;28;20173;-63
2021/10/10 00:44:10;;;;;;;6.37;5.77;;;9.00;96.90;;;;;;5012257;28;20577;-63
2021/10/10 00:46:35;;;;;;;7.03;6.03;;;8.60;97.80;;;;;;5012306;28;20761;-62
2021/10/10 00:49:01;;;;;;;6.03;5.37;;;8.70;98.00;;;;;;5011695;28;20435;-62
2021/10/10 00:51:31;;;;;;;6.90;5.50;;;8.60;98.70;;;;;;5012227;28;20169;-63
2021/10/10 00:53:57;;;;;;;7.27;6.07;;;8.40;97.60;;;;;;5012270;28;20224;-63
2021/10/10 00:56:23;;;;;;;6.30;5.70;;;8.40;99.60;;;;;;5012109;28;20510;-62
2021/10/10 00:58:50;;;;;;;11.90;5.90;;;8.30;98.20;;;;;;5011681;28;20822;-63
2021/10/10 01:01:16;;;;;;;9.70;6.77;;;8.10;98.40;;;;;;5012108;28;20174;-64
2021/10/10 01:03:41;;;;;;;5.60;5.10;;;8.10;98.70;;;;;;5012093;28;20412;-63
2021/10/10 01:06:07;;;;;;;6.40;5.80;;;8.10;98.30;;;;;;5012052;28;20822;-64
2021/10/10 01:08:33;;;;;;;6.47;5.77;;;7.90;98.30;;;;;;5011479;28;20181;-64
2021/10/10 01:10:58;;;;;;;6.37;5.77;;;7.90;98.60;;;;;;5011973;28;20203;-62
2021/10/10 01:13:24;;;;;;;6.27;5.67;;;7.80;98.70;;;;;;5012013;28;20201;-64
2021/10/10 01:15:51;;;;;;;6.10;5.43;;;7.70;98.70;;;;;;5011848;28;20292;-61
2021/10/10 01:18:24;;;;;;;7.60;6.00;;;7.50;98.40;;;;;;5011672;28;20397;-63
2021/10/10 01:20:51;;;;;;;6.73;6.13;;;7.50;98.90;;;;;;5011767;28;20434;-62
2021/10/10 01:23:17;;;;;;;6.70;6.00;;;7.40;99.10;;;;;;5012081;28;20415;-63
2021/10/10 01:25:42;;;;;;;6.93;5.60;;;7.40;99.60;;;;;;5011965;28;20404;-62
2021/10/10 01:28:08;;;;;;;9.30;6.10;;;7.30;99.40;;;;;;5011491;28;20181;-63
2021/10/10 01:30:34;;;;;;;7.00;5.47;;;7.20;99.50;;;;;;5011738;28;20193;-64
2021/10/10 01:33:01;;;;;;;5.40;4.90;;;7.10;99.40;;;;;;5011729;28;20208;-64
2021/10/10 01:35:27;;;;;;;6.93;6.03;;;7.10;99.70;;;;;;5011655;28;20507;-62
2021/10/10 01:37:53;;;;;;;6.67;5.67;;;7.00;99.60;;;;;;5011659;28;20439;-63
2021/10/10 01:40:19;;;;;;;7.93;6.43;;;7.00;99.20;;;;;;5011315;28;20205;-62
2021/10/10 01:42:44;;;;;;;6.23;5.73;;;6.90;99.20;;;;;;5011692;28;20177;-63
2021/10/10 01:45:19;;;;;;;7.90;5.20;;;6.70;99.50;;;;;;5011689;28;20432;-64
2021/10/10 01:47:45;;;;;;;8.10;6.13;;;6.80;99.60;;;;;;5013000;28;20259;-62
2021/10/10 01:50:11;;;;;;;6.13;5.53;;;6.70;99.90;;;;;;5015053;28;20538;-63
2021/10/10 01:52:40;;;;;;;5.67;5.27;;;6.70;99.90;;;;;;5015628;28;20232;-63
2021/10/10 01:55:06;;;;;;;8.10;5.77;;;6.60;99.90;;;;;;5015387;28;20501;-61
2021/10/10 01:57:31;;;;;;;7.03;6.00;;;6.50;99.90;;;;;;5015436;28;20406;-62
2021/10/10 01:59:57;;;;;;;5.80;5.20;;;6.50;99.90;;;;;;5014901;28;20435;-62
2021/10/10 02:02:23;;;;;;;9.73;4.90;;;6.40;99.90;;;;;;5015211;28;20176;-64
2021/10/10 02:04:48;;;;;;;7.07;4.97;;;6.30;99.80;;;;;;5021203;28;20188;-63
2021/10/10 02:07:14;;;;;;;7.70;5.77;;;6.30;99.90;;;;;;5028789;28;20513;-64
2021/10/10 02:09:42;;;;;;;6.70;6.10;;;6.20;99.90;;;;;;5028339;28;20204;-63
2021/10/10 02:12:07;;;;;;;5.97;5.33;;;6.00;99.90;;;;;;5029112;28;20166;-63
2021/10/10 02:14:34;;;;;;;6.33;5.60;;;6.00;99.90;;;;;;5029320;28;20455;-62
2021/10/10 02:17:00;;;;;;;6.37;5.03;;;6.00;99.90;;;;;;5028636;28;20164;-63
2021/10/10 02:19:25;;;;;;;5.30;4.80;;;5.90;99.90;;;;;;5011236;28;20419;-63
2021/10/10 02:21:51;;;;;;;5.60;5.10;;;5.80;99.90;;;;;;5026428;28;20924;-62
2021/10/10 02:24:17;;;;;;;5.53;4.77;;;5.90;99.90;;;;;;5015544;28;20314;-63
2021/10/10 02:26:42;;;;;;;5.23;4.73;;;5.80;99.90;;;;;;5015332;28;20179;-63
2021/10/10 02:29:09;;;;;;;5.30;4.80;;;5.80;99.90;;;;;;5014957;28;20191;-64
2021/10/10 02:31:34;;;;;;;9.60;5.30;;;5.70;99.90;;;;;;5015019;28;20413;-63
2021/10/10 02:34:00;;;;;;;6.70;5.80;;;5.70;99.90;;;;;;5015270;28;20828;-63
2021/10/10 02:36:26;;;;;;;7.27;5.50;;;5.70;99.90;;;;;;5015196;28;20198;-63
2021/10/10 02:38:51;;;;;;;5.23;4.63;;;5.60;99.90;;;;;;5014453;28;20203;-62
2021/10/10 02:41:17;;;;;;;5.17;4.77;;;5.50;99.90;;;;;;5015319;28;20173;-62
2021/10/10 02:43:42;;;;;;;8.20;5.10;;;5.40;99.90;;;;;;5015160;28;20182;-63
2021/10/10 02:46:08;;;;;;;6.70;5.43;;;5.40;99.90;;;;;;5018206;28;20171;-63
2021/10/10 02:48:33;;;;;;;11.97;5.27;;;5.30;99.90;;;;;;5016236;28;20182;-60
2021/10/10 02:50:59;;;;;;;5.03;4.37;;;5.30;99.90;;;;;;5014492;28;20654;-63
2021/10/10 02:53:25;;;;;;;5.70;5.30;;;5.30;99.90;;;;;;5014337;28;20185;-64
2021/10/10 02:55:50;;;;;;;6.10;5.43;;;5.20;99.90;;;;;;5014033;28;20201;-60
2021/10/10 02:58:16;;;;;;;5.37;4.97;;;5.10;99.90;;;;;;5014541;28;20254;-61
2021/10/10 03:00:41;;;;;;;5.27;4.87;;;5.10;99.90;;;;;;5014193;28;20204;-63
2021/10/10 03:03:07;;;;;;;5.10;4.60;;;5.10;99.90;;;;;;5014169;28;20264;-62
2021/10/10 03:05:32;;;;;;;6.40;4.57;;;5.00;99.90;;;;;;5014160;28;20260;-62
2021/10/10 03:07:58;;;;;;;7.60;5.00;;;5.00;99.90;;;;;;5014038;28;20181;-64
2021/10/10 03:10:23;;;;;;;7.20;5.50;;;5.00;99.90;;;;;;5014726;28;20277;-63
2021/10/10 03:12:49;;;;;;;5.33;4.70;;;5.00;99.90;;;;;;5018894;28;20181;-64
2021/10/10 03:15:14;;;;;;;5.30;4.47;;;4.90;99.90;;;;;;5020656;28;20264;-61
2021/10/10 03:17:40;;;;;;;7.17;4.70;;;4.90;99.90;;;;;;5014670;28;20753;-63
2021/10/10 03:20:06;;;;;;;5.27;4.77;;;4.80;99.90;;;;;;5014216;28;20186;-63
2021/10/10 03:22:32;;;;;;;7.07;4.43;;;4.80;99.90;;;;;;5021845;28;20180;-63
2021/10/10 03:24:58;;;;;;;5.27;4.77;;;4.70;99.90;;;;;;5022131;28;20408;-63
2021/10/10 03:27:25;;;;;;;5.07;4.67;;;4.80;99.90;;;;;;5002706;28;20209;-59
2021/10/10 03:29:53;;;;;;;4.87;4.43;;;4.70;99.90;;;;;;5013171;28;20279;-62
2021/10/10 03:32:18;;;;;;;5.93;4.50;;;4.60;99.90;;;;;;4995948;28;20415;-63
2021/10/10 03:34:44;;;;;;;5.17;4.50;;;4.50;99.90;;;;;;5013426;28;20475;-61
2021/10/10 03:37:09;;;;;;;10.43;5.50;;;4.50;99.90;;;;;;5014541;28;20209;-63
2021/10/10 03:39:35;;;;;;;6.80;4.87;;;4.40;99.90;;;;;;5013929;28;20259;-61
2021/10/10 03:42:00;;;;;;;5.10;4.60;;;4.30;99.90;;;;;;5017864;28;20174;-63
2021/10/10 03:44:26;;;;;;;8.53;4.90;;;4.30;99.90;;;;;;5000121;28;20705;-61
2021/10/10 03:46:51;;;;;;;5.73;4.73;;;4.30;99.90;;;;;;5013415;28;20634;-62
2021/10/10 03:49:17;;;;;;;4.63;4.20;;;4.30;99.90;;;;;;5012994;28;20189;-62
2021/10/10 03:51:42;;;;;;;5.40;5.00;;;4.30;99.90;;;;;;5013356;28;20173;-62
2021/10/10 03:56:49;;;;;;;5.20;4.73;;;4.20;99.90;;;;;;5013411;28;20180;-62
2021/10/10 03:59:14;;;;;;;4.77;4.37;;;4.20;99.90;;;;;;5012708;28;20432;-62
2021/10/10 04:01:41;;;;;;;5.50;4.73;;;4.20;99.90;;;;;;5013418;28;20444;-62
2021/10/10 04:04:06;;;;;;;5.60;5.07;;;4.10;99.90;;;;;;5013330;28;20177;-63
2021/10/10 04:06:32;;;;;;;4.80;4.33;;;4.10;99.90;;;;;;5013127;28;20412;-62
2021/10/10 04:08:58;;;;;;;5.93;5.43;;;4.00;99.90;;;;;;5012816;28;20248;-62
2021/10/10 04:11:24;;;;;;;5.33;4.50;;;4.00;99.90;;;;;;5012588;28;20760;-63
2021/10/10 04:13:49;;;;;;;5.07;4.67;;;4.00;99.90;;;;;;5013113;28;20596;-63
2021/10/10 04:16:15;;;;;;;4.90;4.40;;;4.00;99.90;;;;;;5013019;28;20201;-60
2021/10/10 04:18:41;;;;;;;6.07;4.20;;;3.90;99.90;;;;;;5012563;28;20180;-62
2021/10/10 04:21:06;;;;;;;5.13;4.60;;;3.90;99.90;;;;;;5013009;28;20173;-63
2021/10/10 04:23:33;;;;;;;4.97;4.50;;;3.90;99.90;;;;;;5012839;28;20252;-62
2021/10/10 04:25:58;;;;;;;4.67;4.30;;;3.80;99.90;;;;;;5012955;28;20193;-63
2021/10/10 04:28:25;;;;;;;5.13;4.27;;;3.90;99.90;;;;;;5012709;28;20810;-62
2021/10/10 04:30:50;;;;;;;6.13;5.70;;;3.80;99.90;;;;;;5012859;28;20435;-61
2021/10/10 04:33:16;;;;;;;5.13;4.47;;;3.80;99.90;;;;;;5012858;28;20411;-62
2021/10/10 04:35:43;;;;;;;5.87;5.23;;;3.80;99.90;;;;;;5012927;28;20676;-62
2021/10/10 04:38:09;;;;;;;5.10;4.60;;;3.80;99.90;;;;;;5012663;28;20181;-63
2021/10/10 04:40:35;;;;;;;4.63;4.07;;;3.80;99.90;;;;;;5012693;28;20443;-63
2021/10/10 04:43:00;;;;;;;5.47;4.97;;;3.70;99.90;;;;;;5012998;28;20416;-60
2021/10/10 04:45:26;;;;;;;4.83;4.40;;;3.70;99.90;;;;;;5013017;28;20169;-62
2021/10/10 04:47:52;;;;;;;6.70;6.03;;;3.70;99.90;;;;;;5012731;28;20185;-62
2021/10/10 04:50:17;;;;;;;4.90;4.40;;;3.60;99.90;;;;;;5012582;28;20197;-63
2021/10/10 04:52:43;;;;;;;5.53;5.07;;;3.50;99.90;;;;;;5012659;28;20174;-62
2021/10/10 04:55:08;;;;;;;5.17;4.10;;;3.50;99.90;;;;;;5012834;28;20196;-62
2021/10/10 04:57:34;;;;;;;5.43;4.93;;;3.50;99.90;;;;;;5012435;28;20196;-62
2021/10/10 04:59:59;;;;;;;5.23;4.60;;;3.40;99.90;;;;;;4994468;28;20193;-62
2021/10/10 05:02:25;;;;;;;7.83;5.20;;;3.40;99.90;;;;;;5012750;28;20181;-61
2021/10/10 05:04:51;;;;;;;4.53;4.13;;;3.40;99.90;;;;;;5012700;28;20539;-62
2021/10/10 05:07:18;;;;;;;6.80;4.50;;;3.40;99.90;;;;;;5012626;28;20178;-62
2021/10/10 05:09:44;;;;;;;5.00;4.60;;;3.40;99.90;;;;;;5012297;28;20975;-62
2021/10/10 05:12:09;;;;;;;6.67;4.80;;;3.40;99.90;;;;;;5012608;28;20408;-62
2021/10/10 05:14:35;;;;;;;5.67;4.40;;;3.30;99.90;;;;;;5013029;28;20451;-62
2021/10/10 05:17:01;;;;;;;4.50;4.10;;;3.30;99.90;;;;;;5012728;28;20162;-62
2021/10/10 05:19:26;;;;;;;7.17;4.63;;;3.30;99.90;;;;;;5012027;28;20181;-63
2021/10/10 05:21:52;;;;;;;5.17;4.73;;;3.30;99.90;;;;;;5012640;28;20161;-62
2021/10/10 05:24:18;;;;;;;4.83;4.33;;;3.20;99.90;;;;;;5016637;28;20173;-62
2021/10/10 05:26:44;;;;;;;4.43;4.13;;;3.20;99.90;;;;;;5016493;28;20415;-62
2021/10/10 05:29:09;;;;;;;5.00;4.50;;;3.10;99.90;;;;;;5016155;28;20611;-62
2021/10/10 05:31:35;;;;;;;5.57;4.83;;;3.10;99.90;;;;;;5016487;28;20215;-62
2021/10/10 05:34:00;;;;;;;9.17;4.90;;;3.10;99.90;;;;;;5016537;28;20241;-60
2021/10/10 05:36:27;;;;;;;4.60;4.10;;;3.00;99.90;;;;;;5016415;28;20204;-62
2021/10/10 05:38:53;;;;;;;4.07;3.80;;;3.10;99.90;;;;;;5015754;28;20188;-62
2021/10/10 05:41:18;;;;;;;5.53;5.13;;;3.10;99.90;;;;;;5016199;28;20400;-60
2021/10/10 05:43:44;;;;;;;4.80;4.30;;;3.10;99.90;;;;;;5016216;28;20400;-62
2021/10/10 05:46:10;;;;;;;8.93;4.90;;;3.10;99.90;;;;;;5016168;28;20180;-61
2021/10/10 05:48:35;;;;;;;3.93;3.63;;;3.00;99.90;;;;;;5015721;28;20165;-63
2021/10/10 05:51:01;;;;;;;3.90;3.23;;;3.00;99.90;;;;;;5016075;28;20169;-62
2021/10/10 05:53:27;;;;;;;7.03;3.83;;;3.00;99.90;;;;;;5015680;28;20280;-63
2021/10/10 05:56:03;;;;;;;4.27;3.93;;;2.90;99.90;;;;;;5015799;28;20199;-62
2021/10/10 05:58:33;;;;;;;7.47;4.00;;;2.90;99.90;;;;;;5016132;28;20173;-61
2021/10/10 06:00:59;;;;;;;3.80;3.50;;;2.90;99.90;;;;;;5016595;28;20803;-62
2021/10/10 06:03:25;;;;;;;5.93;5.23;;;2.80;99.90;;;;;;5016137;28;20400;-61
2021/10/10 06:05:51;;;;;;;5.10;4.70;;;2.80;99.90;;;;;;5015752;28;20423;-62
2021/10/10 06:08:16;;;;;;;5.07;4.67;;;2.90;99.90;;;;;;5015547;28;20547;-62
2021/10/10 06:10:42;;;;;;;5.70;5.20;;;2.90;99.90;;;;;;5015537;28;20431;-59
2021/10/10 06:13:09;;;;;;;5.10;4.40;;;2.90;99.90;;;;;;5015763;28;20181;-62
2021/10/10 06:15:34;;;;;;;5.23;4.83;;;2.90;99.90;;;;;;5015703;28;20452;-63
2021/10/10 06:18:01;;;;;;;4.83;4.43;;;2.90;99.90;;;;;;5015154;28;20858;-62
2021/10/10 06:20:27;;;;;;;5.80;4.30;;;2.80;99.90;;;;;;5015228;28;20204;-62
2021/10/10 06:22:52;;;;;;;6.17;4.43;;;2.90;99.90;;;;;;5015532;28;20404;-62
2021/10/10 06:25:18;;;;;;;6.67;5.40;;;2.90;99.90;;;;;;5015738;28;20223;-62
2021/10/10 06:27:44;;;;;;;6.20;5.33;;;2.90;99.90;;;;;;5015344;28;20619;-60
2021/10/10 06:30:09;;;;;;;7.10;6.30;;;3.00;99.90;;;;;;5015144;28;20196;-62
2021/10/10 06:32:35;;;;;;;7.47;6.77;;;3.00;99.90;;;;;;5015031;28;20177;-62
2021/10/10 06:35:01;;;;;;;5.10;4.63;;;3.00;99.90;;;;;;5014677;28;20995;-62
2021/10/10 06:37:27;;;;;;;5.90;5.40;;;3.10;99.90;;;;;;5015033;28;20404;-62
2021/10/10 06:39:53;;;;;;;5.93;5.40;;;3.00;99.90;;;;;;5014660;28;20451;-62
2021/10/10 06:42:18;;;;;;;6.43;5.73;;;3.10;99.90;;;;;;5015217;28;20181;-62
2021/10/10 06:44:44;;;;;;;6.27;5.53;;;3.10;99.90;;;;;;5014962;28;20172;-63
2021/10/10 06:47:10;;;;;;;5.50;5.00;;;3.20;99.90;;;;;;5014909;28;20174;-61
2021/10/10 06:49:35;;;;;;;5.23;4.73;;;3.20;99.90;;;;;;5014666;28;20251;-61
2021/10/10 06:52:01;;;;;;;5.47;4.80;;;3.20;99.90;;;;;;5014864;28;20235;-62
2021/10/10 06:54:27;;;;;;;5.40;4.90;;;3.30;99.90;;;;;;5014635;28;20173;-62
2021/10/10 06:56:52;;;;;;;5.93;5.37;;;3.40;99.90;;;;;;5014700;28;20415;-62
2021/10/10 06:59:19;;;;;;;6.37;5.77;;;3.40;99.90;;;;;;5014224;28;20268;-62
2021/10/10 07:01:44;;;;;;;6.00;5.13;;;3.40;99.90;;;;;;5014598;28;20170;-62
2021/10/10 07:04:10;;;;;;;6.53;5.73;;;3.50;99.90;;;;;;5014429;28;20408;-62
2021/10/10 07:06:36;;;;;;;7.93;5.17;;;3.60;99.90;;;;;;5014531;28;20748;-62
2021/10/10 07:09:02;;;;;;;8.83;5.93;;;3.60;99.90;;;;;;5014090;28;20215;-62
2021/10/10 07:11:27;;;;;;;6.37;5.77;;;3.70;99.90;;;;;;5014449;28;20176;-62
2021/10/10 07:13:53;;;;;;;9.73;6.07;;;3.70;99.90;;;;;;5014472;28;20412;-62
2021/10/10 07:16:25;;;;;;;7.60;6.30;;;3.80;99.90;;;;;;5014389;28;20225;-63
2021/10/10 07:18:52;;;;;;;5.73;4.73;;;3.90;99.90;;;;;;5013956;28;20169;-63
2021/10/10 07:26:22;;;;;;;6.10;5.50;;;4.20;99.90;;;;;;5015468;28;20963;-58
2021/10/10 07:28:49;;;;;;;5.80;5.10;;;4.30;99.90;;;;;;5015286;28;20486;-62
2021/10/10 07:31:14;;;;;;;7.87;5.10;;;4.40;99.90;;;;;;5015330;28;20408;-62
2021/10/10 07:33:40;;;;;;;6.90;5.53;;;4.50;99.90;;;;;;5015031;28;20415;-60
2021/10/10 07:36:06;;;;;;;4.50;4.07;;;4.50;99.90;;;;;;5014654;28;20280;-63
2021/10/10 07:38:32;;;;;;;4.30;3.80;;;4.70;99.90;;;;;;5033074;28;20172;-63
2021/10/10 07:41:02;;;;;;;5.63;4.50;;;4.80;99.90;;;;;;4999901;28;20411;-63
2021/10/10 07:43:28;;;;;;;6.00;5.30;;;4.90;99.90;;;;;;5034331;28;20545;-61
2021/10/10 07:45:54;;;;;;;6.17;5.60;;;5.10;99.90;;;;;;5033146;28;20477;-62
2021/10/10 07:48:20;;;;;;;6.30;4.60;;;5.20;99.90;;;;;;5033797;28;20479;-62
2021/10/10 07:50:55;;;;;;;6.40;5.07;;;5.30;99.90;;;;;;5033996;28;20919;-63
2021/10/10 07:53:20;;;;;;;6.27;5.23;;;5.50;99.90;;;;;;5033850;28;20167;-62
2021/10/10 07:55:46;;;;;;;6.60;6.07;;;5.60;99.90;;;;;;5033954;28;20538;-61
2021/10/10 07:58:11;;;;;;;6.07;5.53;;;5.80;99.90;;;;;;5033598;28;20192;-61
2021/10/10 08:00:37;;;;;;;6.23;5.73;;;5.90;99.90;;;;;;5033721;28;20214;-63
2021/10/10 08:03:02;;;;;;;6.00;5.40;;;6.10;99.90;;;;;;5033728;28;20172;-62
2021/10/10 08:05:29;;;;;;;6.93;6.00;;;6.30;99.90;;;;;;5033516;28;20164;-61
2021/10/10 08:07:56;;;;;;;6.40;5.80;;;6.50;99.90;;;;;;5033189;28;20716;-62
2021/10/10 08:10:22;;;;;;;8.83;5.40;;;6.80;99.90;;;;;;5033614;28;20510;-63
2021/10/10 08:12:48;;;;;;;6.20;5.47;;;7.10;99.90;;;;;;5033930;28;20892;-62
2021/10/10 08:15:14;;;;;;;7.20;5.50;;;7.40;99.90;;;;;;5033446;28;20550;-62
2021/10/10 08:17:40;;;;;;;6.37;5.77;;;7.60;99.90;;;;;;5033653;28;20493;-63
2021/10/10 08:20:08;;;;;;;7.63;6.53;;;7.90;99.90;;;;;;5033218;28;20426;-63
2021/10/10 08:22:35;;;;;;;6.77;5.70;;;8.20;99.90;;;;;;5033508;28;20404;-62
2021/10/10 08:25:11;;;;;;;7.10;5.53;;;8.40;99.90;;;;;;5033332;28;20405;-63
2021/10/10 08:27:38;;;;;;;6.77;6.00;;;8.70;99.90;;;;;;5033504;28;20886;-62
2021/10/10 08:30:06;;;;;;;8.73;6.60;;;9.20;99.90;;;;;;5032739;28;20433;-63
2021/10/10 08:32:32;;;;;;;7.23;6.60;;;9.60;99.90;;;;;;5033202;28;20788;-62
2021/10/10 08:34:58;;;;;;;10.27;6.70;;;9.90;99.90;;;;;;5033157;28;20438;-62
2021/10/10 08:37:24;;;;;;;7.27;6.50;;;10.20;99.90;;;;;;5032779;28;20432;-63
2021/10/10 08:39:49;;;;;;;8.87;7.90;;;10.60;99.90;;;;;;5032505;28;20560;-61
2021/10/10 08:42:18;;;;;;;8.50;7.20;;;11.10;99.90;;;;;;5032728;28;20404;-61
2021/10/10 08:44:47;;;;;;;7.60;5.90;;;11.40;99.90;;;;;;5032820;28;20251;-61
2021/10/10 08:47:17;;;;;;;7.90;6.93;;;11.70;99.90;;;;;;5032601;28;20399;-62
2021/10/10 08:49:44;;;;;;;7.63;6.80;;;12.10;97.20;;;;;;5032045;28;20493;-63
2021/10/10 08:52:11;;;;;;;7.17;6.47;;;12.50;96.60;;;;;;5032535;28;20411;-62
2021/10/10 08:54:38;;;;;;;8.53;6.23;;;13.00;96.10;;;;;;5032404;28;20483;-64
2021/10/10 08:57:08;;;;;;;8.90;6.90;;;13.40;95.90;;;;;;5032346;28;20410;-62
2021/10/10 08:59:42;;;;;;;8.43;7.70;;;13.70;95.20;;;;;;5031991;28;20422;-63
2021/10/10 09:02:11;;;;;;;7.67;6.97;;;14.60;94.50;;;;;;5032852;28;20403;-63
2021/10/10 09:04:40;;;;;;;9.63;7.20;;;15.40;93.80;;;;;;5032935;28;21102;-63
2021/10/10 09:07:06;;;;;;;7.97;7.27;;;16.00;92.50;;;;;;5032673;28;20478;-62
2021/10/10 09:09:35;;;;;;;7.83;7.03;;;16.50;90.00;;;;;;5032156;28;20791;-62
2021/10/10 09:12:09;;;;;;;6.63;6.03;;;16.90;88.30;;;;;;5032503;28;20498;-64
2021/10/10 09:14:52;;;;;;;6.50;5.73;;;16.80;84.10;;;;;;5032286;28;20950;-65
2021/10/10 09:17:22;;;;;;;7.37;6.67;;;17.90;90.00;;;;;;5032216;28;20410;-64
2021/10/10 09:19:50;;;;;;;8.90;8.00;;;17.70;82.40;;;;;;5031800;28;20831;-64
2021/10/10 09:22:17;;;;;;;7.80;7.07;;;17.60;79.30;;;;;;5031974;28;20410;-63
2021/10/10 09:24:43;;;;;;;9.73;7.97;;;17.50;81.30;;;;;;5031886;28;20408;-64
2021/10/10 09:27:14;;;;;;;10.00;7.67;;;18.50;85.50;;;;;;5031913;28;20430;-63
2021/10/10 09:29:43;;;;;;;7.33;6.70;;;19.00;85.90;;;;;;5031368;28;20279;-64
2021/10/10 09:32:24;;;;;;;8.67;6.20;;;19.30;79.70;;;;;;5031715;28;20931;-64
2021/10/10 09:34:51;;;;;;;7.77;6.90;;;19.20;77.00;;;;;;5031676;28;20435;-64
2021/10/10 09:37:30;;;;;;;6.83;6.23;;;19.10;78.70;;;;;;5031573;28;20510;-64
2021/10/10 09:40:05;;;;;;;8.83;7.33;;;19.30;80.70;;;;;;5031268;28;20525;-64
2021/10/10 09:42:36;;;;;;;9.17;7.30;;;19.70;78.70;;;;;;5032048;28;20403;-64
2021/10/10 09:45:59;;;;;;;8.33;7.63;;;20.30;78.40;;;;;;5032297;28;20403;-65
2021/10/10 09:48:28;;;;;;;8.20;7.30;;;20.80;75.80;;;;;;5027194;28;21341;-65
2021/10/10 09:50:54;;;;;;;8.67;7.87;;;21.00;71.50;;;;;;5031357;28;20430;-65
2021/10/10 09:53:32;;;;;;;7.90;7.10;;;20.90;73.30;;;;;;5031380;28;20407;-65
2021/10/10 09:56:07;;;;;;;11.80;9.10;;;20.70;71.70;;;;;;5031610;28;20250;-65
2021/10/10 09:58:43;;;;;;;8.50;7.70;;;20.60;68.80;;;;;;5031146;28;20394;-65
2021/10/10 10:01:13;;;;;;;9.73;7.97;;;20.40;72.40;;;;;;5031317;28;20920;-65
2021/10/10 10:03:55;;;;;;;6.60;5.90;;;20.10;73.30;;;;;;5031210;28;20951;-65
2021/10/10 10:06:22;;;;;;;8.93;8.13;;;20.50;74.40;;;;;;5031535;28;20449;-65
2021/10/10 10:08:48;;;;;;;10.73;7.13;;;20.90;74.90;;;;;;5032214;28;20986;-65
2021/10/10 10:11:14;;;;;;;10.57;7.70;;;21.40;74.40;;;;;;5034935;28;20411;-65
2021/10/10 10:13:41;;;;;;;7.50;6.80;;;21.50;69.90;;;;;;5034887;28;20620;-65
2021/10/10 10:16:07;;;;;;;8.03;7.33;;;21.60;71.60;;;;;;5034753;28;20447;-65
2021/10/10 10:18:35;;;;;;;9.77;7.60;;;21.90;70.30;;;;;;5034441;28;20787;-65
2021/10/10 10:21:02;;;;;;;7.83;7.23;;;22.00;69.00;;;;;;5034634;28;20192;-65
2021/10/10 10:23:31;;;;;;;8.00;7.40;;;22.40;70.60;;;;;;5034722;28;20942;-65
2021/10/10 10:25:57;;;;;;;8.80;6.80;;;22.90;71.30;;;;;;5034700;28;20410;-65
2021/10/10 10:28:23;;;;;;;8.53;7.83;;;23.10;72.20;;;;;;5034336;28;20392;-65
2021/10/10 10:30:50;;;;;;;8.93;8.13;;;23.20;68.60;;;;;;5034380;28;20869;-65
2021/10/10 10:33:16;;;;;;;7.77;7.10;;;23.10;68.20;;;;;;5034574;28;20173;-65
2021/10/10 10:35:43;;;;;;;9.00;8.20;;;23.30;71.10;;;;;;5034313;28;20501;-66
2021/10/10 10:38:08;;;;;;;8.93;8.13;;;23.50;70.10;;;;;;5034095;28;20661;-65
2021/10/10 10:40:36;;;;;;;11.23;7.50;;;23.70;68.10;;;;;;5034250;28;20454;-65
2021/10/10 10:43:06;;;;;;;9.93;9.00;;;24.00;67.00;;;;;;5034391;28;20707;-66
2021/10/10 10:45:38;;;;;;;10.30;8.57;;;24.20;65.90;;;;;;5034297;28;20415;-66
2021/10/10 10:48:31;;;;;;;9.07;8.17;;;24.50;64.60;;;;;;5034033;28;20415;-66
2021/10/10 10:51:23;;;;;;;9.17;8.27;;;24.20;62.70;;;;;;5033862;28;20427;-66
2021/10/10 10:53:49;;;;;;;11.30;10.13;;;24.10;61.80;;;;;;5034126;28;20423;-66
2021/10/10 10:56:33;;;;;;;10.83;8.17;;;24.00;61.50;;;;;;5034044;28;20530;-66
2021/10/10 10:58:59;;;;;;;9.70;8.70;;;24.00;62.50;;;;;;5033728;28;20426;-66
2021/10/10 11:01:45;;;;;;;9.93;8.93;;;24.30;65.40;;;;;;5034123;28;20411;-66
2021/10/10 11:04:28;;;;;;;10.63;9.63;;;24.70;63.50;;;;;;5033772;28;20549;-66
2021/10/10 11:06:57;;;;;;;9.50;8.50;;;25.10;59.20;;;;;;5033959;28;20904;-66
2021/10/10 11:09:26;;;;;;;10.23;9.43;;;25.40;61.90;;;;;;5033454;28;20506;-66
2021/10/10 11:11:56;;;;;;;9.17;8.13;;;25.80;60.10;;;;;;5033874;28;20406;-66
2021/10/10 11:14:28;;;;;;;9.33;8.43;;;25.70;58.80;;;;;;5033754;28;20407;-66
2021/10/10 11:17:04;;;;;;;9.27;7.93;;;25.90;59.60;;;;;;5033693;28;20398;-66
2021/10/10 11:19:29;;;;;;;8.33;7.63;;;26.50;59.80;;;;;;5033175;28;20438;-66
2021/10/10 11:21:56;;;;;;;9.63;8.20;;;26.20;60.80;;;;;;5033712;28;20851;-66
2021/10/10 11:24:24;;;;;;;9.83;9.03;;;26.30;58.30;;;;;;5033604;28;20164;-67
2021/10/10 11:26:51;;;;;;;10.53;9.40;;;25.60;57.90;;;;;;5033593;28;20485;-66
2021/10/10 11:29:22;;;;;;;9.10;8.30;;;24.70;59.00;;;;;;5032904;28;20823;-67
2021/10/10 11:31:47;;;;;;;9.93;9.03;;;25.10;65.50;;;;;;5033529;28;20400;-66
2021/10/10 11:34:16;;;;;;;10.53;9.53;;;25.50;60.30;;;;;;5033465;28;20474;-66
2021/10/10 11:36:51;;;;;;;10.13;9.10;;;25.70;58.30;;;;;;5033329;28;20231;-66
2021/10/10 11:39:30;;;;;;;9.60;8.80;;;25.20;58.30;;;;;;5032810;28;21034;-67
2021/10/10 11:42:10;;;;;;;9.37;8.53;;;25.30;59.60;;;;;;5033329;28;20403;-67
2021/10/10 11:44:41;;;;;;;8.50;7.70;;;25.20;59.10;;;;;;5033252;28;20809;-67
2021/10/10 11:47:19;;;;;;;10.90;8.10;;;25.20;57.80;;;;;;5033235;28;20938;-67
2021/10/10 11:49:53;;;;;;;9.90;8.93;;;25.40;58.60;;;;;;5032540;28;20802;-67
2021/10/10 11:54:46;;;;;;;10.13;8.50;;;25.60;56.50;;;;;;5033082;28;20399;-67
2021/10/10 11:57:13;;;;;;;9.07;8.07;;;25.70;59.10;;;;;;5032977;28;20226;-67
2021/10/10 11:59:50;;;;;;;9.10;8.23;;;25.50;57.00;;;;;;5032448;28;20423;-67
2021/10/10 12:02:16;;;;;;;10.83;9.10;;;25.10;58.40;;;;;;5032937;28;20438;-67
2021/10/10 12:04:41;;;;;;;14.17;8.60;;;24.70;57.80;;;;;;5032694;28;20443;-67
2021/10/10 12:07:07;;;;;;;8.67;7.97;;;24.90;60.30;;;;;;5032904;28;20191;-67
2021/10/10 12:09:33;;;;;;;8.73;7.83;;;25.30;59.70;;;;;;5032293;28;20187;-67
2021/10/10 12:12:14;;;;;;;8.87;7.97;;;25.40;58.70;;;;;;5032781;28;20180;-67
2021/10/10 12:14:52;;;;;;;8.57;7.60;;;25.30;58.80;;;;;;5032630;28;20219;-67
2021/10/10 12:17:40;;;;;;;9.23;8.30;;;25.10;58.50;;;;;;5032514;28;20863;-67
2021/10/10 12:20:15;;;;;;;8.40;7.50;;;25.30;59.70;;;;;;5032156;28;20423;-67
2021/10/10 12:22:45;;;;;;;8.97;8.27;;;25.70;60.50;;;;;;5032503;28;20779;-67
2021/10/10 12:25:21;;;;;;;8.80;8.00;;;26.10;61.30;;;;;;5032518;28;20481;-67
2021/10/10 12:28:01;;;;;;;8.57;7.87;;;26.60;59.10;;;;;;5032435;28;20402;-67
2021/10/10 12:30:29;;;;;;;9.90;9.00;;;27.20;57.60;;;;;;5032216;28;20518;-67
2021/10/10 12:32:55;;;;;;;8.43;7.80;;;27.60;58.50;;;;;;5031965;28;20549;-67
2021/10/10 12:35:21;;;;;;;8.73;7.37;;;27.90;56.70;;;;;;5032217;28;20455;-68
2021/10/10 12:37:58;;;;;;;9.83;8.60;;;28.10;57.20;;;;;;5032181;28;20404;-68
2021/10/10 12:40:34;;;;;;;9.07;8.27;;;28.60;57.00;;;;;;5031994;28;20254;-68
2021/10/10 12:42:59;;;;;;;11.93;9.37;;;28.90;56.10;;;;;;5032239;28;20434;-68
2021/10/10 12:45:32;;;;;;;9.60;8.70;;;29.00;54.70;;;;;;5032183;28;20466;-68
2021/10/10 12:48:02;;;;;;;11.63;8.60;;;29.10;57.60;;;;;;5031894;28;20195;-68
2021/10/10 12:50:28;;;;;;;13.70;9.50;;;29.20;53.30;;;;;;5031872;28;20435;-68
2021/10/10 12:52:54;;;;;;;8.83;8.13;;;29.40;53.50;;;;;;5032065;28;20411;-68
2021/10/10 12:55:29;;;;;;;9.63;8.63;;;29.30;53.80;;;;;;5032031;28;20192;-68
2021/10/10 12:57:57;;;;;;;10.83;9.83;;;29.40;55.40;;;;;;5031969;28;20176;-68
2021/10/10 13:00:24;;;;;;;9.43;7.87;;;29.30;52.90;;;;;;5031788;28;20441;-68
2021/10/10 13:02:50;;;;;;;10.27;9.27;;;29.30;54.90;;;;;;5031698;28;21316;-68
2021/10/10 13:05:19;;;;;;;9.70;8.77;;;29.20;52.90;;;;;;5031962;28;20407;-68